Time;durP1;ratioP1;P1;durP2;ratioP2;P2;SDS_P1;SDS_P2;PMS_P1;PMS_P2;Temp;Humidity;BMP_temperature;BMP_pressure;BME280_temperature;BME280_humidity;BME280_pressure;Samples;Min_cycle;Max_cycle;Signal;HPM_P1;HPM_P2
2023/03/22 00:00:17;;;;;;;3.70;3.40;;;;;;;;;;5068472;28;20204;-64
2023/03/22 00:02:45;;;;;;;3.60;3.30;;;;;;;;;;5075640;28;20259;-63
2023/03/22 00:05:12;;;;;;;4.00;3.53;;;;;;;;;;5090065;28;20323;-63
2023/03/22 00:07:39;;;;;;;4.30;3.37;;;;;;;;;;5092809;28;20292;-65
2023/03/22 00:10:07;;;;;;;3.70;3.40;;;;;;;;;;5087484;28;20212;-64
2023/03/22 00:12:34;;;;;;;4.33;3.30;;;;;;;;;;5082655;27;20235;-64
2023/03/22 00:15:02;;;;;;;3.30;3.00;;;;;;;;;;5073891;28;20276;-64
2023/03/22 00:17:29;;;;;;;3.20;2.90;;;;;;;;;;5069226;28;20227;-64
2023/03/22 00:19:57;;;;;;;3.57;3.00;;;;;;;;;;5064752;28;20700;-64
2023/03/22 00:22:25;;;;;;;3.80;2.70;;;;;;;;;;5074072;28;20201;-65
2023/03/22 00:24:52;;;;;;;3.57;2.23;;;;;;;;;;5084977;28;20231;-65
2023/03/22 00:27:19;;;;;;;3.10;2.50;;;;;;;;;;5070654;28;21033;-63
2023/03/22 00:29:46;;;;;;;3.13;2.37;;;;;;;;;;5069082;28;21246;-64
2023/03/22 00:32:14;;;;;;;2.60;2.40;;;;;;;;;;5068803;27;20300;-64
2023/03/22 00:34:41;;;;;;;2.47;2.27;;;;;;;;;;5068660;28;20224;-64
2023/03/22 00:37:09;;;;;;;2.70;2.50;;;;;;;;;;5071830;27;20208;-63
2023/03/22 00:39:36;;;;;;;4.17;3.30;;;;;;;;;;5073791;28;20885;-63
2023/03/22 00:42:05;;;;;;;12.07;6.87;;;;;;;;;;5087771;28;20277;-63
2023/03/22 00:44:32;;;;;;;13.17;6.50;;;;;;;;;;5104323;28;20629;-63
2023/03/22 00:47:00;;;;;;;11.97;6.20;;;;;;;;;;5090547;28;20343;-63
2023/03/22 00:49:28;;;;;;;11.63;5.47;;;;;;;;;;5091514;28;20291;-63
2023/03/22 00:51:55;;;;;;;9.33;4.97;;;;;;;;;;5072572;28;20208;-63
2023/03/22 00:54:22;;;;;;;5.93;3.63;;;;;;;;;;5073865;28;20285;-64
2023/03/22 00:56:50;;;;;;;6.07;4.23;;;;;;;;;;5086439;28;20291;-64
2023/03/22 00:59:17;;;;;;;8.73;5.07;;;;;;;;;;5072733;28;20227;-64
2023/03/22 01:01:44;;;;;;;5.70;4.17;;;;;;;;;;5069809;28;20299;-65
2023/03/22 01:04:16;;;;;;;5.67;3.67;;;;;;;;;;5074990;28;20200;-64
2023/03/22 01:06:45;;;;;;;4.70;3.20;;;;;;;;;;5090005;28;20830;-63
2023/03/22 01:09:13;;;;;;;2.60;2.40;;;;;;;;;;5087664;28;20313;-63
2023/03/22 01:11:42;;;;;;;2.90;2.70;;;;;;;;;;5090370;28;20204;-64
2023/03/22 01:14:12;;;;;;;3.27;2.60;;;;;;;;;;5069006;28;20207;-63
2023/03/22 01:16:40;;;;;;;3.73;2.50;;;;;;;;;;5075316;28;20606;-63
2023/03/22 01:19:07;;;;;;;2.50;2.30;;;;;;;;;;5085325;28;20219;-63
2023/03/22 01:21:36;;;;;;;2.53;2.30;;;;;;;;;;5064302;28;20208;-64
2023/03/22 01:24:03;;;;;;;4.13;2.30;;;;;;;;;;5074796;28;20235;-63
2023/03/22 01:26:32;;;;;;;3.03;2.60;;;;;;;;;;5069861;28;20253;-63
2023/03/22 01:28:59;;;;;;;2.73;2.30;;;;;;;;;;5066567;28;20204;-63
2023/03/22 01:31:27;;;;;;;2.73;2.47;;;;;;;;;;5086287;28;21771;-65
2023/03/22 01:33:54;;;;;;;2.70;2.50;;;;;;;;;;5077103;28;20200;-64
2023/03/22 01:36:22;;;;;;;3.13;2.83;;;;;;;;;;5088323;28;20825;-65
2023/03/22 01:38:50;;;;;;;3.47;2.90;;;;;;;;;;5071337;28;20833;-64
2023/03/22 01:41:17;;;;;;;5.47;3.00;;;;;;;;;;5106932;27;20242;-63
2023/03/22 01:43:45;;;;;;;4.20;2.77;;;;;;;;;;5089207;28;20253;-62
2023/03/22 01:46:12;;;;;;;3.60;3.27;;;;;;;;;;5070422;28;20311;-64
2023/03/22 01:48:47;;;;;;;8.57;3.20;;;;;;;;;;5073762;28;20276;-63
2023/03/22 01:51:19;;;;;;;4.33;3.03;;;;;;;;;;5069388;28;20281;-64
2023/03/22 01:53:52;;;;;;;3.63;3.20;;;;;;;;;;5069238;28;20558;-63
2023/03/22 01:56:21;;;;;;;3.43;3.10;;;;;;;;;;5085743;28;20305;-63
2023/03/22 01:58:49;;;;;;;4.20;3.30;;;;;;;;;;5067239;28;20205;-65
2023/03/22 02:01:18;;;;;;;4.10;3.20;;;;;;;;;;5091618;28;20200;-63
2023/03/22 02:04:05;;;;;;;3.43;3.13;;;;;;;;;;5095902;28;20673;-64
2023/03/22 02:06:36;;;;;;;3.93;3.30;;;;;;;;;;5084191;28;20292;-62
2023/03/22 02:09:05;;;;;;;3.57;3.27;;;;;;;;;;5080447;28;20216;-63
2023/03/22 02:11:37;;;;;;;3.80;3.40;;;;;;;;;;5081824;27;20786;-63
2023/03/22 02:14:25;;;;;;;5.17;3.77;;;;;;;;;;5086284;27;20894;-64
2023/03/22 02:17:09;;;;;;;6.83;3.50;;;;;;;;;;5070176;28;20208;-64
2023/03/22 02:19:44;;;;;;;3.80;3.50;;;;;;;;;;5075202;28;20200;-65
2023/03/22 02:22:24;;;;;;;4.67;3.87;;;;;;;;;;5069934;28;20218;-65
2023/03/22 02:25:07;;;;;;;4.50;3.70;;;;;;;;;;5074766;28;20234;-63
2023/03/22 02:27:53;;;;;;;5.90;3.90;;;;;;;;;;5065302;28;20820;-62
2023/03/22 02:30:24;;;;;;;4.60;3.70;;;;;;;;;;5060639;28;20281;-63
2023/03/22 02:33:04;;;;;;;6.17;3.47;;;;;;;;;;5073839;28;20299;-63
2023/03/22 02:35:37;;;;;;;5.77;5.10;;;;;;;;;;5085498;27;20441;-63
2023/03/22 02:38:23;;;;;;;7.73;6.23;;;;;;;;;;5083118;27;20447;-64
2023/03/22 02:40:56;;;;;;;7.30;5.63;;;;;;;;;;5079387;28;20200;-63
2023/03/22 02:43:37;;;;;;;8.73;5.97;;;;;;;;;;5093711;28;20253;-63
2023/03/22 02:46:14;;;;;;;8.27;7.47;;;;;;;;;;5092626;28;20277;-64
2023/03/22 02:48:53;;;;;;;7.23;6.53;;;;;;;;;;5111616;27;20210;-62
2023/03/22 02:51:22;;;;;;;6.37;5.40;;;;;;;;;;5094220;27;20819;-63
2023/03/22 02:53:58;;;;;;;5.47;4.97;;;;;;;;;;5086099;27;20334;-63
2023/03/22 02:56:45;;;;;;;5.03;4.53;;;;;;;;;;5071672;28;20231;-63
2023/03/22 02:59:13;;;;;;;5.03;4.30;;;;;;;;;;5075516;28;20196;-63
2023/03/22 03:01:43;;;;;;;5.17;4.50;;;;;;;;;;5066593;28;20295;-63
2023/03/22 03:04:13;;;;;;;5.53;4.00;;;;;;;;;;5073674;28;20212;-64
2023/03/22 03:06:46;;;;;;;5.60;4.10;;;;;;;;;;5086231;27;20304;-63
2023/03/22 03:09:18;;;;;;;5.57;4.50;;;;;;;;;;5070328;27;20277;-63
2023/03/22 03:11:50;;;;;;;3.20;2.90;;;;;;;;;;5069995;28;20682;-63
2023/03/22 03:14:25;;;;;;;5.00;2.70;;;;;;;;;;5085903;27;20243;-63
2023/03/22 03:17:05;;;;;;;3.57;2.90;;;;;;;;;;5079238;28;20217;-63
2023/03/22 03:19:37;;;;;;;3.47;2.77;;;;;;;;;;5065858;28;20212;-62
2023/03/22 03:22:07;;;;;;;2.93;2.53;;;;;;;;;;5082824;27;20239;-64
2023/03/22 03:24:44;;;;;;;3.90;2.77;;;;;;;;;;5092501;27;20281;-63
2023/03/22 03:27:22;;;;;;;4.07;2.80;;;;;;;;;;5069419;28;20729;-64
2023/03/22 03:29:59;;;;;;;2.60;2.40;;;;;;;;;;5074150;27;20236;-62
2023/03/22 03:32:37;;;;;;;3.63;3.03;;;;;;;;;;5073665;28;20266;-64
2023/03/22 03:35:21;;;;;;;2.97;2.70;;;;;;;;;;5085336;27;20242;-65
2023/03/22 03:38:07;;;;;;;4.20;3.13;;;;;;;;;;5083929;27;20689;-64
2023/03/22 03:40:50;;;;;;;4.27;2.97;;;;;;;;;;5101044;27;20217;-63
2023/03/22 03:43:18;;;;;;;3.30;2.70;;;;;;;;;;5067203;28;20228;-62
2023/03/22 03:45:45;;;;;;;2.97;2.67;;;;;;;;;;5072407;28;20228;-64
2023/03/22 03:48:23;;;;;;;4.13;3.10;;;;;;;;;;5076200;27;20252;-62
2023/03/22 03:50:52;;;;;;;5.50;3.13;;;;;;;;;;5109129;27;20200;-63
2023/03/22 03:53:19;;;;;;;4.23;2.77;;;;;;;;;;5076378;28;20324;-64
2023/03/22 03:55:47;;;;;;;3.33;3.00;;;;;;;;;;5072312;28;20251;-63
2023/03/22 03:58:15;;;;;;;4.47;2.70;;;;;;;;;;5070685;28;20216;-63
2023/03/22 04:00:45;;;;;;;3.63;2.67;;;;;;;;;;5071719;28;21232;-63
2023/03/22 04:03:13;;;;;;;2.77;2.50;;;;;;;;;;5093900;27;20204;-64
2023/03/22 04:05:40;;;;;;;3.63;2.67;;;;;;;;;;5089998;28;20758;-64
2023/03/22 04:08:08;;;;;;;4.53;4.00;;;;;;;;;;5084857;27;20261;-64
2023/03/22 04:10:35;;;;;;;6.90;4.67;;;;;;;;;;5071844;28;20316;-62
2023/03/22 04:13:02;;;;;;;4.77;3.87;;;;;;;;;;5070749;28;20204;-62
2023/03/22 04:15:32;;;;;;;4.77;4.10;;;;;;;;;;5076846;28;20256;-64
2023/03/22 04:17:59;;;;;;;4.20;3.73;;;;;;;;;;5076286;28;20235;-64
2023/03/22 04:20:28;;;;;;;3.70;3.40;;;;;;;;;;5067589;27;20204;-64
2023/03/22 04:22:56;;;;;;;4.20;3.47;;;;;;;;;;5066449;28;20253;-64
2023/03/22 04:25:29;;;;;;;3.97;3.57;;;;;;;;;;5068522;28;20232;-62
2023/03/22 04:27:59;;;;;;;4.37;3.70;;;;;;;;;;5086711;27;20212;-62
2023/03/22 04:30:26;;;;;;;4.00;3.70;;;;;;;;;;5082178;28;20672;-62
2023/03/22 04:32:55;;;;;;;3.93;3.63;;;;;;;;;;5082476;27;20235;-62
2023/03/22 04:35:26;;;;;;;6.57;4.07;;;;;;;;;;5091480;27;20324;-64
2023/03/22 04:37:53;;;;;;;2.90;2.70;;;;;;;;;;5068192;28;20628;-63
2023/03/22 04:40:21;;;;;;;3.60;3.30;;;;;;;;;;5078962;28;20232;-63
2023/03/22 04:42:48;;;;;;;3.57;3.07;;;;;;;;;;5088871;28;20228;-64
2023/03/22 04:45:15;;;;;;;5.03;3.23;;;;;;;;;;5086566;28;20274;-65
2023/03/22 04:47:43;;;;;;;3.60;3.30;;;;;;;;;;5084693;28;20609;-63
2023/03/22 04:50:10;;;;;;;3.37;3.03;;;;;;;;;;5083759;28;20208;-62
2023/03/22 04:52:37;;;;;;;5.23;3.60;;;;;;;;;;5082123;27;20207;-62
2023/03/22 04:55:05;;;;;;;3.83;3.50;;;;;;;;;;5064849;28;20252;-62
2023/03/22 04:57:34;;;;;;;4.57;3.67;;;;;;;;;;5069870;28;20204;-62
2023/03/22 05:00:05;;;;;;;3.77;3.47;;;;;;;;;;5072298;28;20196;-62
2023/03/22 05:02:33;;;;;;;3.70;3.40;;;;;;;;;;5060538;28;20205;-63
2023/03/22 05:05:00;;;;;;;3.93;3.53;;;;;;;;;;5085914;28;20967;-62
2023/03/22 05:07:28;;;;;;;4.43;4.03;;;;;;;;;;5060096;28;20200;-62
2023/03/22 05:09:55;;;;;;;4.43;3.83;;;;;;;;;;5065076;28;20698;-62
2023/03/22 05:12:23;;;;;;;4.80;4.03;;;;;;;;;;5067594;28;20204;-64
2023/03/22 05:14:50;;;;;;;4.27;3.87;;;;;;;;;;5082397;28;20232;-64
2023/03/22 05:17:18;;;;;;;3.33;3.00;;;;;;;;;;5073114;28;20791;-64
2023/03/22 05:19:45;;;;;;;3.50;3.20;;;;;;;;;;5065807;28;20367;-64
2023/03/22 05:22:12;;;;;;;3.20;2.90;;;;;;;;;;5059466;28;20347;-64
2023/03/22 05:24:40;;;;;;;3.67;3.37;;;;;;;;;;5082188;28;20220;-64
2023/03/22 05:27:09;;;;;;;5.17;3.20;;;;;;;;;;5065500;28;22572;-64
2023/03/22 05:29:43;;;;;;;3.67;3.27;;;;;;;;;;5063742;28;20213;-63
2023/03/22 05:32:11;;;;;;;5.40;3.50;;;;;;;;;;5066728;28;20211;-64
2023/03/22 05:34:41;;;;;;;4.73;3.00;;;;;;;;;;5064059;28;20281;-64
2023/03/22 05:37:09;;;;;;;4.87;3.13;;;;;;;;;;5078676;28;20220;-64
2023/03/22 05:39:36;;;;;;;4.00;3.37;;;;;;;;;;5067300;28;20315;-64
2023/03/22 05:42:03;;;;;;;4.33;3.50;;;;;;;;;;5063409;28;20230;-64
2023/03/22 05:44:31;;;;;;;5.60;3.50;;;;;;;;;;5081695;28;20248;-63
2023/03/22 05:46:58;;;;;;;4.83;3.17;;;;;;;;;;5073856;28;20242;-63
2023/03/22 05:49:26;;;;;;;3.33;3.03;;;;;;;;;;5072527;28;20335;-63
2023/03/22 05:51:53;;;;;;;8.63;4.00;;;;;;;;;;5075953;28;21340;-64
2023/03/22 05:54:20;;;;;;;5.63;3.23;;;;;;;;;;5075974;28;20204;-64
2023/03/22 05:56:48;;;;;;;8.00;3.73;;;;;;;;;;5085546;27;20290;-64
2023/03/22 05:59:15;;;;;;;7.30;3.90;;;;;;;;;;5075978;28;20233;-64
2023/03/22 06:01:43;;;;;;;6.83;4.10;;;;;;;;;;5069118;27;20216;-64
2023/03/22 06:04:11;;;;;;;12.10;3.60;;;;;;;;;;5094192;28;20208;-64
2023/03/22 06:06:38;;;;;;;7.63;3.07;;;;;;;;;;5088131;28;20209;-64
2023/03/22 06:09:05;;;;;;;10.17;3.47;;;;;;;;;;5087548;28;20231;-63
2023/03/22 06:11:43;;;;;;;6.30;3.17;;;;;;;;;;5074948;27;20590;-63
2023/03/22 06:14:10;;;;;;;7.20;3.73;;;;;;;;;;5076970;28;20204;-64
2023/03/22 06:16:38;;;;;;;4.50;2.67;;;;;;;;;;5077149;27;20300;-63
2023/03/22 06:19:05;;;;;;;4.50;2.93;;;;;;;;;;5074407;28;20212;-64
2023/03/22 06:21:33;;;;;;;9.37;5.07;;;;;;;;;;5076622;28;20232;-63
2023/03/22 06:24:00;;;;;;;23.43;12.10;;;;;;;;;;5075272;27;20204;-64
2023/03/22 06:26:27;;;;;;;26.83;14.87;;;;;;;;;;5109299;27;20239;-64
2023/03/22 06:28:55;;;;;;;12.10;7.40;;;;;;;;;;5089122;27;20231;-64
2023/03/22 06:31:22;;;;;;;9.80;7.00;;;;;;;;;;5091688;27;20369;-64
2023/03/22 06:33:50;;;;;;;10.87;6.63;;;;;;;;;;5068268;28;20258;-64
2023/03/22 06:36:19;;;;;;;12.90;7.57;;;;;;;;;;5072152;28;20228;-64
2023/03/22 06:38:47;;;;;;;15.50;7.83;;;;;;;;;;5071326;28;20239;-64
2023/03/22 06:41:14;;;;;;;12.73;7.40;;;;;;;;;;5116160;27;20323;-64
2023/03/22 06:43:42;;;;;;;12.07;6.43;;;;;;;;;;5118549;27;20669;-64
2023/03/22 06:46:09;;;;;;;6.57;4.20;;;;;;;;;;5101034;28;20224;-64
2023/03/22 06:48:37;;;;;;;5.10;3.23;;;;;;;;;;5101367;27;20230;-64
2023/03/22 06:51:04;;;;;;;3.40;3.10;;;;;;;;;;5075437;27;20296;-64
2023/03/22 06:53:31;;;;;;;3.83;3.07;;;;;;;;;;5077894;28;20219;-64
2023/03/22 06:55:59;;;;;;;4.50;2.60;;;;;;;;;;5073811;28;20247;-64
2023/03/22 06:58:27;;;;;;;3.10;2.80;;;;;;;;;;5074411;28;20609;-64
2023/03/22 07:00:55;;;;;;;2.70;2.50;;;;;;;;;;5064327;28;28067;-64
2023/03/22 07:03:23;;;;;;;2.70;2.50;;;;;;;;;;5084623;28;20649;-64
2023/03/22 07:05:50;;;;;;;2.90;2.70;;;;;;;;;;5086459;27;20351;-64
2023/03/22 07:08:18;;;;;;;2.50;2.30;;;;;;;;;;5084814;27;20203;-64
2023/03/22 07:10:49;;;;;;;2.80;2.60;;;;;;;;;;5085283;28;20262;-63
2023/03/22 07:13:16;;;;;;;2.50;2.30;;;;;;;;;;5082091;27;20655;-63
2023/03/22 07:15:44;;;;;;;3.80;1.97;;;;;;;;;;5077252;28;20220;-64
2023/03/22 07:18:12;;;;;;;2.93;2.10;;;;;;;;;;5095300;27;20204;-63
2023/03/22 07:20:40;;;;;;;1.93;1.80;;;;;;;;;;5089579;27;20232;-63
2023/03/22 07:23:09;;;;;;;3.37;2.07;;;;;;;;;;5062179;28;20232;-63
2023/03/22 07:25:37;;;;;;;2.40;1.90;;;;;;;;;;5058410;27;22064;-63
2023/03/22 07:28:05;;;;;;;1.90;1.77;;;;;;;;;;5077969;27;20232;-63
2023/03/22 07:30:36;;;;;;;2.63;2.20;;;;;;;;;;5056447;28;20746;-62
2023/03/22 07:33:05;;;;;;;2.07;1.90;;;;;;;;;;5050462;28;20204;-63
2023/03/22 07:35:32;;;;;;;2.53;1.97;;;;;;;;;;5079075;27;20281;-65
2023/03/22 07:38:00;;;;;;;2.63;1.80;;;;;;;;;;5066334;28;25758;-63
2023/03/22 07:40:28;;;;;;;1.90;1.80;;;;;;;;;;5098130;27;20273;-62
2023/03/22 07:42:55;;;;;;;2.10;1.87;;;;;;;;;;5067769;27;20356;-64
2023/03/22 07:45:23;;;;;;;1.80;1.70;;;;;;;;;;5069315;27;20335;-64
2023/03/22 07:47:50;;;;;;;1.77;1.43;;;;;;;;;;5064761;28;20213;-63
2023/03/22 07:50:18;;;;;;;1.67;1.40;;;;;;;;;;5077121;28;20205;-65
2023/03/22 07:52:45;;;;;;;1.87;1.57;;;;;;;;;;5067742;27;20212;-65
2023/03/22 07:55:14;;;;;;;2.77;1.80;;;;;;;;;;5082724;28;20227;-67
2023/03/22 07:57:41;;;;;;;2.33;1.50;;;;;;;;;;5065708;28;20232;-64
2023/03/22 08:00:09;;;;;;;2.87;1.70;;;;;;;;;;5069810;28;20805;-63
2023/03/22 08:02:37;;;;;;;1.60;1.50;;;;;;;;;;5085600;27;20204;-65
2023/03/22 08:05:06;;;;;;;1.90;1.30;;;;;;;;;;5086155;28;20255;-63
2023/03/22 08:07:33;;;;;;;1.40;1.03;;;;;;;;;;5086101;28;20661;-64
2023/03/22 08:10:01;;;;;;;1.00;1.00;;;;;;;;;;5077907;28;21154;-64
2023/03/22 08:12:28;;;;;;;1.30;1.13;;;;;;;;;;5069224;28;20298;-64
2023/03/22 08:14:55;;;;;;;1.43;1.33;;;;;;;;;;5066213;28;20800;-64
2023/03/22 08:17:24;;;;;;;7.60;1.50;;;;;;;;;;5075114;27;20248;-64
2023/03/22 08:19:55;;;;;;;14.03;1.80;;;;;;;;;;5098506;27;20213;-64
2023/03/22 08:22:28;;;;;;;2.33;1.40;;;;;;;;;;5073724;28;20236;-65
2023/03/22 08:24:55;;;;;;;8.07;1.73;;;;;;;;;;5073498;28;20228;-64
2023/03/22 08:27:23;;;;;;;1.50;1.40;;;;;;;;;;5071816;28;20279;-64
2023/03/22 08:29:50;;;;;;;7.47;1.50;;;;;;;;;;5070443;28;20466;-63
2023/03/22 08:32:17;;;;;;;15.50;1.80;;;;;;;;;;5089830;27;20665;-63
2023/03/22 08:34:45;;;;;;;10.20;1.57;;;;;;;;;;5080241;27;20751;-63
2023/03/22 08:37:13;;;;;;;1.97;1.30;;;;;;;;;;5067335;28;20300;-62
2023/03/22 08:39:40;;;;;;;3.50;1.50;;;;;;;;;;5097326;27;20273;-63
2023/03/22 08:42:07;;;;;;;1.77;1.40;;;;;;;;;;5094718;27;20213;-63
2023/03/22 08:44:35;;;;;;;1.93;1.00;;;;;;;;;;5083513;28;20522;-63
2023/03/22 08:47:03;;;;;;;3.67;1.40;;;;;;;;;;5085343;28;20265;-63
2023/03/22 08:49:30;;;;;;;3.70;1.57;;;;;;;;;;5104411;27;20265;-65
2023/03/22 08:51:57;;;;;;;5.63;1.77;;;;;;;;;;5076939;28;20265;-63
2023/03/22 08:54:26;;;;;;;1.73;1.40;;;;;;;;;;5082560;27;20316;-63
2023/03/22 08:56:54;;;;;;;1.53;1.40;;;;;;;;;;5066657;28;20220;-63
2023/03/22 08:59:21;;;;;;;1.43;1.33;;;;;;;;;;5069263;28;20295;-62
2023/03/22 09:01:49;;;;;;;2.73;1.60;;;;;;;;;;5083585;28;20234;-63
2023/03/22 09:04:16;;;;;;;2.77;1.47;;;;;;;;;;5085946;28;20212;-63
2023/03/22 09:06:45;;;;;;;2.77;1.33;;;;;;;;;;5068137;28;20215;-64
2023/03/22 09:09:13;;;;;;;1.40;1.30;;;;;;;;;;5068241;28;20236;-64
2023/03/22 09:11:41;;;;;;;4.03;1.30;;;;;;;;;;5065238;28;20223;-62
2023/03/22 09:14:09;;;;;;;3.40;1.60;;;;;;;;;;5087927;28;20219;-64
2023/03/22 09:16:37;;;;;;;2.10;1.50;;;;;;;;;;5067781;28;20264;-64
2023/03/22 09:19:05;;;;;;;1.60;1.50;;;;;;;;;;5072323;28;20204;-65
2023/03/22 09:21:32;;;;;;;2.37;1.50;;;;;;;;;;5070137;28;20905;-64
2023/03/22 09:24:00;;;;;;;3.07;1.63;;;;;;;;;;5088908;27;20211;-64
2023/03/22 09:26:27;;;;;;;5.00;1.60;;;;;;;;;;5080645;27;20376;-62
2023/03/22 09:28:54;;;;;;;2.00;1.50;;;;;;;;;;5077249;28;20296;-64
2023/03/22 09:31:22;;;;;;;1.60;1.50;;;;;;;;;;5072500;28;20333;-65
2023/03/22 09:33:49;;;;;;;1.67;1.57;;;;;;;;;;5073376;28;20215;-64
2023/03/22 09:36:16;;;;;;;2.73;1.90;;;;;;;;;;5085111;27;20349;-64
2023/03/22 09:38:45;;;;;;;6.00;1.80;;;;;;;;;;5070903;27;20211;-64
2023/03/22 09:41:12;;;;;;;3.03;1.50;;;;;;;;;;5072849;28;20285;-64
2023/03/22 09:43:43;;;;;;;2.60;1.30;;;;;;;;;;5087028;27;20208;-64
2023/03/22 09:46:15;;;;;;;1.60;1.50;;;;;;;;;;5073247;28;20749;-64
2023/03/22 09:48:44;;;;;;;2.40;1.50;;;;;;;;;;5072994;27;20299;-64
2023/03/22 09:51:22;;;;;;;5.30;1.90;;;;;;;;;;5073052;28;20621;-64
2023/03/22 09:53:49;;;;;;;1.50;1.40;;;;;;;;;;5064887;28;20350;-64
2023/03/22 09:56:24;;;;;;;1.73;1.50;;;;;;;;;;5068892;28;20331;-64
2023/03/22 09:59:14;;;;;;;2.27;1.53;;;;;;;;;;5074546;28;20308;-65
2023/03/22 10:01:42;;;;;;;1.97;1.80;;;;;;;;;;5069984;28;20748;-65
2023/03/22 10:04:09;;;;;;;2.93;1.37;;;;;;;;;;5084515;27;20192;-65
2023/03/22 10:06:37;;;;;;;4.57;1.40;;;;;;;;;;5088560;28;20871;-65
2023/03/22 10:09:04;;;;;;;2.03;1.30;;;;;;;;;;5097783;27;20269;-64
2023/03/22 10:11:32;;;;;;;1.50;1.40;;;;;;;;;;5085416;27;20695;-64
2023/03/22 10:14:02;;;;;;;1.57;1.40;;;;;;;;;;5074491;28;20723;-64
2023/03/22 10:16:32;;;;;;;2.70;1.40;;;;;;;;;;5070674;28;20255;-63
2023/03/22 10:19:05;;;;;;;1.30;1.20;;;;;;;;;;5083002;27;20210;-65
2023/03/22 10:21:32;;;;;;;1.13;1.13;;;;;;;;;;5071832;27;20306;-63
2023/03/22 10:24:02;;;;;;;2.30;1.37;;;;;;;;;;5083303;27;20277;-63
2023/03/22 10:26:35;;;;;;;1.50;1.40;;;;;;;;;;5088277;27;20292;-64
2023/03/22 10:29:04;;;;;;;4.90;1.50;;;;;;;;;;5078830;27;20261;-64
2023/03/22 10:31:33;;;;;;;2.75;1.23;;;;;;;;;;5068161;27;20338;-64
2023/03/22 10:34:21;;;;;;;1.92;1.30;;;;;;;;;;5080273;27;20566;-63
2023/03/22 10:36:51;;;;;;;1.60;1.20;;;;;;;;;;5073421;27;20236;-63
2023/03/22 10:39:26;;;;;;;1.50;1.38;;;;;;;;;;5073250;27;20408;-64
2023/03/22 10:41:54;;;;;;;1.77;1.65;;;;;;;;;;5081700;28;20192;-64
2023/03/22 10:44:24;;;;;;;1.00;1.00;;;;;;;;;;5074900;28;20264;-63
2023/03/22 10:46:53;;;;;;;1.00;1.00;;;;;;;;;;5100835;27;20252;-63
2023/03/22 10:49:24;;;;;;;1.55;1.10;;;;;;;;;;5083323;28;20978;-64
2023/03/22 10:51:56;;;;;;;0.80;0.80;;;;;;;;;;5066679;27;20212;-63
2023/03/22 10:54:24;;;;;;;0.77;0.70;;;;;;;;;;5083625;27;20303;-64
2023/03/22 10:56:52;;;;;;;0.77;0.77;;;;;;;;;;5080719;27;20227;-65
2023/03/22 10:59:38;;;;;;;1.10;1.00;;;;;;;;;;5054311;27;20304;-64
2023/03/22 11:02:20;;;;;;;1.58;0.70;;;;;;;;;;5064152;28;20283;-65
2023/03/22 11:04:52;;;;;;;1.13;0.82;;;;;;;;;;5058936;28;20658;-65
2023/03/22 11:07:34;;;;;;;1.40;1.20;;;;;;;;;;5058052;27;20205;-65
2023/03/22 11:10:07;;;;;;;0.70;0.70;;;;;;;;;;5066457;27;21001;-65
2023/03/22 11:12:40;;;;;;;0.70;0.70;;;;;;;;;;5062821;27;20265;-65
2023/03/22 11:15:20;;;;;;;1.50;0.77;;;;;;;;;;5065580;28;20224;-65
2023/03/22 11:17:47;;;;;;;0.70;0.70;;;;;;;;;;5063520;28;20373;-64
2023/03/22 11:20:16;;;;;;;0.90;0.90;;;;;;;;;;5060330;28;20304;-64
2023/03/22 11:22:45;;;;;;;0.93;0.75;;;;;;;;;;5062483;28;20290;-64
2023/03/22 11:25:17;;;;;;;1.13;0.80;;;;;;;;;;5058093;27;20357;-64
2023/03/22 11:27:56;;;;;;;0.73;0.73;;;;;;;;;;5082318;28;20259;-64
2023/03/22 11:30:26;;;;;;;0.85;0.85;;;;;;;;;;5089188;28;20216;-64
2023/03/22 11:33:19;;;;;;;0.90;0.80;;;;;;;;;;5076622;28;20243;-65
2023/03/22 11:35:53;;;;;;;1.55;0.80;;;;;;;;;;5074291;28;20252;-65
2023/03/22 11:38:29;;;;;;;1.80;0.90;;;;;;;;;;5066464;28;20224;-65
2023/03/22 11:40:59;;;;;;;1.85;0.80;;;;;;;;;;5096358;27;20211;-65
2023/03/22 11:43:31;;;;;;;1.08;0.90;;;;;;;;;;5091443;28;20212;-65
2023/03/22 11:45:59;;;;;;;1.33;0.90;;;;;;;;;;5077815;28;20255;-64
2023/03/22 11:48:30;;;;;;;2.22;1.10;;;;;;;;;;5073448;28;20200;-65
2023/03/22 11:51:17;;;;;;;0.85;0.80;;;;;;;;;;5090761;28;20211;-64
2023/03/22 11:53:47;;;;;;;11.43;1.25;;;;;;;;;;5083677;28;20226;-65
2023/03/22 11:56:21;;;;;;;2.58;0.90;;;;;;;;;;5088834;27;20664;-65
2023/03/22 11:59:07;;;;;;;1.02;0.90;;;;;;;;;;5055409;28;20350;-64
2023/03/22 12:01:50;;;;;;;0.90;0.90;;;;;;;;;;5069747;28;20231;-65
2023/03/22 12:04:22;;;;;;;1.95;1.05;;;;;;;;;;5060435;28;20692;-65
2023/03/22 12:06:52;;;;;;;1.65;0.90;;;;;;;;;;5077775;27;23400;-64
2023/03/22 12:09:23;;;;;;;1.20;0.90;;;;;;;;;;5070230;28;20310;-65
2023/03/22 12:11:59;;;;;;;1.00;1.00;;;;;;;;;;5080535;27;20230;-65
2023/03/22 12:14:29;;;;;;;1.20;1.10;;;;;;;;;;5085584;28;20203;-65
2023/03/22 12:16:57;;;;;;;1.08;0.98;;;;;;;;;;5084988;28;20213;-65
2023/03/22 12:19:31;;;;;;;0.93;0.93;;;;;;;;;;5085090;28;20563;-65
2023/03/22 12:21:59;;;;;;;2.38;0.90;;;;;;;;;;5073522;27;20252;-64
2023/03/22 12:24:28;;;;;;;1.75;1.00;;;;;;;;;;5085864;28;20203;-65
2023/03/22 12:26:58;;;;;;;1.73;0.85;;;;;;;;;;5066251;28;20311;-65
2023/03/22 12:29:26;;;;;;;1.00;1.00;;;;;;;;;;5071867;28;20721;-65
2023/03/22 12:32:03;;;;;;;1.00;1.00;;;;;;;;;;5080552;27;20220;-64
2023/03/22 12:34:41;;;;;;;1.30;1.20;;;;;;;;;;5076325;28;20277;-64
2023/03/22 12:37:11;;;;;;;4.07;2.35;;;;;;;;;;5088006;27;20301;-65
2023/03/22 12:39:42;;;;;;;1.48;1.00;;;;;;;;;;5085029;28;20208;-65
2023/03/22 12:42:18;;;;;;;1.33;1.23;;;;;;;;;;5096643;27;20253;-65
2023/03/22 12:44:46;;;;;;;0.80;0.80;;;;;;;;;;5082667;28;20235;-65
2023/03/22 12:47:40;;;;;;;1.45;0.95;;;;;;;;;;5088538;28;20292;-65
2023/03/22 12:50:13;;;;;;;4.93;1.10;;;;;;;;;;5104344;27;20215;-65
2023/03/22 12:52:53;;;;;;;1.40;1.20;;;;;;;;;;5081300;28;20295;-65
2023/03/22 12:55:26;;;;;;;1.20;1.10;;;;;;;;;;5085797;28;20224;-65
2023/03/22 12:57:53;;;;;;;2.42;1.20;;;;;;;;;;5069028;28;20216;-65
2023/03/22 13:00:41;;;;;;;1.23;0.93;;;;;;;;;;5087225;28;20254;-65
2023/03/22 13:03:16;;;;;;;1.52;1.10;;;;;;;;;;5067460;28;20234;-65
2023/03/22 13:05:46;;;;;;;1.65;1.08;;;;;;;;;;5084547;28;20219;-65
2023/03/22 13:08:18;;;;;;;1.60;1.10;;;;;;;;;;5068278;28;20208;-65
2023/03/22 13:11:04;;;;;;;1.98;1.25;;;;;;;;;;5057221;28;20241;-65
2023/03/22 13:13:33;;;;;;;1.00;1.00;;;;;;;;;;5090511;28;20203;-65
2023/03/22 13:16:00;;;;;;;2.17;1.35;;;;;;;;;;5072942;28;20239;-65
2023/03/22 13:18:37;;;;;;;2.58;1.02;;;;;;;;;;5078367;28;20219;-65
2023/03/22 13:21:12;;;;;;;1.00;1.00;;;;;;;;;;5059783;28;20207;-66
2023/03/22 13:23:56;;;;;;;1.23;1.00;;;;;;;;;;5068304;28;20207;-65
2023/03/22 13:26:47;;;;;;;0.82;0.82;;;;;;;;;;5081372;28;20223;-66
2023/03/22 13:29:25;;;;;;;1.17;0.90;;;;;;;;;;5064975;28;20211;-65
2023/03/22 13:31:53;;;;;;;1.30;1.20;;;;;;;;;;5090547;27;20342;-66
2023/03/22 13:34:32;;;;;;;1.80;0.80;;;;;;;;;;5063915;28;20209;-66
2023/03/22 13:37:04;;;;;;;1.20;1.10;;;;;;;;;;5071606;28;20219;-66
2023/03/22 13:39:33;;;;;;;1.42;1.00;;;;;;;;;;5060388;28;20219;-66
2023/03/22 13:42:28;;;;;;;6.85;1.20;;;;;;;;;;5065538;28;20562;-65
2023/03/22 13:45:01;;;;;;;2.78;1.27;;;;;;;;;;5030624;28;20237;-66
2023/03/22 13:47:30;;;;;;;1.17;1.08;;;;;;;;;;5092216;28;20248;-64
2023/03/22 13:50:04;;;;;;;0.98;0.90;;;;;;;;;;5066493;28;20594;-66
2023/03/22 13:52:39;;;;;;;2.15;0.90;;;;;;;;;;5085384;28;20216;-66
2023/03/22 13:55:26;;;;;;;1.85;0.93;;;;;;;;;;5098557;27;20353;-65
2023/03/22 13:57:58;;;;;;;1.52;0.80;;;;;;;;;;5047019;28;20306;-65
2023/03/22 14:00:29;;;;;;;0.70;0.70;;;;;;;;;;5090422;28;20196;-65
2023/03/22 14:03:00;;;;;;;0.90;0.90;;;;;;;;;;5068566;28;20274;-65
2023/03/22 14:05:32;;;;;;;1.23;1.15;;;;;;;;;;5080482;28;20239;-65
2023/03/22 14:08:01;;;;;;;1.00;0.90;;;;;;;;;;5084659;27;20281;-65
2023/03/22 14:10:44;;;;;;;1.23;0.80;;;;;;;;;;5072621;28;20481;-65
2023/03/22 14:13:18;;;;;;;1.05;1.05;;;;;;;;;;5083847;27;20911;-66
2023/03/22 14:16:18;;;;;;;1.25;0.73;;;;;;;;;;5081078;28;20220;-65
2023/03/22 14:18:47;;;;;;;1.38;0.93;;;;;;;;;;5049980;28;20716;-65
2023/03/22 14:21:19;;;;;;;0.73;0.73;;;;;;;;;;5088973;27;20299;-65
2023/03/22 14:23:49;;;;;;;0.65;0.65;;;;;;;;;;5077968;27;20302;-65
2023/03/22 14:26:21;;;;;;;0.80;0.80;;;;;;;;;;5089882;27;20216;-64
2023/03/22 14:28:47;;;;;;;1.25;0.70;;;;;;;;;;5051545;28;20237;-65
2023/03/22 14:31:16;;;;;;;0.70;0.70;;;;;;;;;;5061252;28;20215;-65
2023/03/22 14:33:43;;;;;;;0.95;0.90;;;;;;;;;;5064138;27;20302;-64
2023/03/22 14:36:12;;;;;;;1.27;0.60;;;;;;;;;;5070084;28;20257;-64
2023/03/22 14:38:41;;;;;;;0.70;0.70;;;;;;;;;;5073948;27;20354;-65
2023/03/22 14:41:15;;;;;;;0.88;0.75;;;;;;;;;;5091976;28;20771;-64
2023/03/22 14:43:44;;;;;;;0.50;0.50;;;;;;;;;;5095043;28;20279;-64
2023/03/22 14:46:18;;;;;;;1.17;1.17;;;;;;;;;;5085861;28;20685;-64
2023/03/22 14:48:53;;;;;;;0.80;0.80;;;;;;;;;;5068677;28;20234;-64
2023/03/22 14:51:39;;;;;;;0.80;0.80;;;;;;;;;;5093243;28;20196;-65
2023/03/22 14:54:10;;;;;;;0.80;0.80;;;;;;;;;;5073889;28;20196;-65
2023/03/22 14:56:41;;;;;;;0.57;0.57;;;;;;;;;;5072247;28;20208;-65
2023/03/22 14:59:11;;;;;;;0.70;0.68;;;;;;;;;;5072601;28;20289;-65
2023/03/22 15:01:41;;;;;;;0.60;0.60;;;;;;;;;;5060440;28;20211;-63
2023/03/22 15:04:12;;;;;;;1.75;0.85;;;;;;;;;;5083564;27;20184;-63